Time;durP1;ratioP1;P1;durP2;ratioP2;P2;SDS_P1;SDS_P2;PMS_P1;PMS_P2;Temp;Humidity;BMP_temperature;BMP_pressure;BME280_temperature;BME280_humidity;BME280_pressure;Samples;Min_cycle;Max_cycle;Signal;HPM_P1;HPM_P2
2021/04/13 00:00:50;;;;;;;9.60;7.38;;;-1.70;99.90;;;;;;2063997;28;20175;-69
2021/04/13 00:02:23;;;;;;;11.63;7.93;;;-1.70;99.90;;;;;;2063893;28;20218;-69
2021/04/13 00:03:23;;;;;;;10.95;7.72;;;-1.70;99.90;;;;;;2080166;28;20157;-68
2021/04/13 00:04:24;;;;;;;12.17;8.43;;;-1.70;99.90;;;;;;2080087;28;20274;-68
2021/04/13 00:05:31;;;;;;;10.38;7.40;;;-1.70;99.90;;;;;;2072735;28;20166;-68
2021/04/13 00:06:51;;;;;;;11.98;7.78;;;-1.70;99.90;;;;;;2081902;28;20181;-69
2021/04/13 00:07:52;;;;;;;12.40;8.18;;;-1.70;99.90;;;;;;2073765;28;20651;-68
2021/04/13 00:09:07;;;;;;;10.73;8.00;;;-1.70;99.90;;;;;;2065633;28;20249;-68
2021/04/13 00:10:24;;;;;;;10.80;7.47;;;-1.70;99.90;;;;;;2067717;28;20163;-69
2021/04/13 00:11:26;;;;;;;10.23;7.65;;;-1.70;99.90;;;;;;2067830;28;20241;-69
2021/04/13 00:12:31;;;;;;;12.63;8.02;;;-1.70;99.90;;;;;;2073823;28;20181;-69
2021/04/13 00:13:33;;;;;;;11.35;7.93;;;-1.80;99.90;;;;;;2081355;28;20161;-69
2021/04/13 00:14:40;;;;;;;11.75;8.10;;;-1.80;99.90;;;;;;2073618;28;20245;-68
2021/04/13 00:15:49;;;;;;;11.77;7.88;;;-1.80;99.90;;;;;;2066610;28;20174;-69
2021/04/13 00:16:54;;;;;;;11.32;7.32;;;-1.80;99.90;;;;;;2074774;28;20229;-68
2021/04/13 00:17:58;;;;;;;8.95;7.28;;;-1.80;99.90;;;;;;2073787;28;20185;-69
2021/04/13 00:18:58;;;;;;;11.40;8.02;;;-1.80;99.90;;;;;;2074114;28;20274;-69
2021/04/13 00:20:20;;;;;;;12.10;7.93;;;-1.80;99.90;;;;;;2081915;28;20180;-68
2021/04/13 00:21:28;;;;;;;8.55;6.65;;;-1.80;99.90;;;;;;2074115;28;20193;-69
2021/04/13 00:22:29;;;;;;;11.18;7.35;;;-1.80;99.90;;;;;;2081781;28;20170;-69
2021/04/13 00:23:30;;;;;;;9.18;7.40;;;-1.80;99.90;;;;;;2073544;28;20261;-69
2021/04/13 00:24:31;;;;;;;8.93;6.68;;;-1.90;99.90;;;;;;2073487;28;20204;-69
2021/04/13 00:25:38;;;;;;;11.55;7.93;;;-1.90;99.90;;;;;;2073434;28;20170;-68
2021/04/13 00:26:39;;;;;;;11.77;7.88;;;-1.90;99.90;;;;;;2081191;28;20240;-71
2021/04/13 00:27:40;;;;;;;10.98;8.25;;;-1.90;99.90;;;;;;2073594;28;20758;-68
2021/04/13 00:28:46;;;;;;;11.07;7.87;;;-1.90;99.90;;;;;;2073778;28;20173;-68
2021/04/13 00:29:47;;;;;;;10.30;7.70;;;-1.90;99.90;;;;;;2073544;28;20201;-69
2021/04/13 00:30:53;;;;;;;10.87;7.83;;;-1.90;99.90;;;;;;2065376;28;20748;-68
2021/04/13 00:31:58;;;;;;;11.93;7.85;;;-1.90;99.90;;;;;;2074012;28;20185;-69
2021/04/13 00:33:02;;;;;;;9.65;7.20;;;-1.90;99.90;;;;;;2081784;28;20640;-69
2021/04/13 00:34:03;;;;;;;11.10;7.82;;;-2.00;99.90;;;;;;2073416;28;20221;-69
2021/04/13 00:36:32;;;;;;;12.38;7.55;;;-2.00;99.90;;;;;;2066130;28;20194;-69
2021/04/13 00:37:33;;;;;;;11.05;7.40;;;-2.00;99.90;;;;;;2073425;28;20169;-70
2021/04/13 00:38:45;;;;;;;12.07;7.43;;;-2.00;99.90;;;;;;2073601;28;20236;-69
2021/04/13 00:39:47;;;;;;;10.48;7.68;;;-2.00;99.90;;;;;;2073621;28;20158;-69
2021/04/13 00:40:49;;;;;;;11.55;7.70;;;-2.00;99.90;;;;;;2073954;28;20843;-69
2021/04/13 00:41:59;;;;;;;11.90;8.23;;;-2.00;99.90;;;;;;2073725;28;20563;-69
2021/04/13 00:43:04;;;;;;;11.23;8.43;;;-2.10;99.90;;;;;;2081477;28;20264;-69
2021/04/13 00:44:09;;;;;;;15.35;8.02;;;-2.10;99.90;;;;;;2073250;28;20225;-69
2021/04/13 00:45:34;;;;;;;10.95;7.57;;;-2.10;99.90;;;;;;2073476;28;20671;-68
2021/04/13 00:46:50;;;;;;;10.05;7.20;;;-2.10;99.90;;;;;;2081574;28;20176;-69
2021/04/13 00:47:53;;;;;;;13.05;7.88;;;-2.10;99.90;;;;;;2073410;28;20715;-69
2021/04/13 00:48:59;;;;;;;13.00;7.78;;;-2.20;99.90;;;;;;2073349;28;20182;-68
2021/04/13 00:50:11;;;;;;;13.70;7.80;;;-2.20;99.90;;;;;;2081403;28;20560;-69
2021/04/13 00:51:15;;;;;;;11.68;7.55;;;-2.20;99.90;;;;;;2073207;28;20181;-69
2021/04/13 00:52:23;;;;;;;12.02;7.28;;;-2.20;99.90;;;;;;2073290;28;20513;-69
2021/04/13 00:53:25;;;;;;;12.10;7.50;;;-2.20;99.90;;;;;;2081679;28;20183;-70
2021/04/13 00:54:30;;;;;;;12.23;7.85;;;-2.30;99.90;;;;;;2073223;28;20284;-69
2021/04/13 00:55:39;;;;;;;12.27;7.90;;;-2.30;99.90;;;;;;2065985;28;20218;-69
2021/04/13 00:56:41;;;;;;;11.95;8.15;;;-2.30;99.90;;;;;;2066521;28;20219;-69
2021/04/13 00:57:46;;;;;;;11.88;7.93;;;-2.30;99.90;;;;;;2073208;28;20589;-70
2021/04/13 00:59:15;;;;;;;11.57;8.50;;;-2.30;99.90;;;;;;2074024;28;20178;-69
2021/04/13 01:00:28;;;;;;;11.43;7.40;;;-2.40;99.90;;;;;;2081511;28;20170;-69
2021/04/13 01:01:36;;;;;;;10.93;7.80;;;-2.40;99.90;;;;;;2073105;28;20601;-69
2021/04/13 01:02:37;;;;;;;10.00;6.78;;;-2.40;99.90;;;;;;2073354;28;20166;-69
2021/04/13 01:03:48;;;;;;;11.87;7.37;;;-2.40;99.90;;;;;;2081389;28;20216;-69
2021/04/13 01:05:18;;;;;;;10.88;7.78;;;-2.40;99.90;;;;;;2073193;28;20186;-68
2021/04/13 01:06:25;;;;;;;12.20;7.75;;;-2.40;99.90;;;;;;2076979;28;20184;-69
2021/04/13 01:07:40;;;;;;;11.48;7.40;;;-2.40;99.90;;;;;;2081195;28;20158;-69
2021/04/13 01:08:41;;;;;;;12.10;7.93;;;-2.40;99.90;;;;;;2073073;28;20166;-69
2021/04/13 01:09:50;;;;;;;10.97;7.77;;;-2.40;99.90;;;;;;2073154;28;20265;-69
2021/04/13 01:10:57;;;;;;;13.63;7.90;;;-2.40;99.90;;;;;;2073079;28;20228;-68
2021/04/13 01:12:16;;;;;;;12.82;8.25;;;-2.40;99.90;;;;;;2065625;28;20179;-70
2021/04/13 01:13:23;;;;;;;11.15;7.55;;;-2.40;99.90;;;;;;2067357;28;20644;-69
2021/04/13 01:14:27;;;;;;;10.85;7.50;;;-2.40;99.90;;;;;;2073828;28;20209;-69
2021/04/13 01:15:28;;;;;;;11.07;7.30;;;-2.40;99.90;;;;;;2073097;28;20274;-70
2021/04/13 01:16:38;;;;;;;9.43;7.53;;;-2.40;99.90;;;;;;2073201;28;20260;-69
2021/04/13 01:17:42;;;;;;;10.93;6.95;;;-2.30;99.90;;;;;;2080495;28;20173;-69
2021/04/13 01:18:50;;;;;;;9.93;7.13;;;-2.40;99.90;;;;;;2072981;28;20178;-69
2021/04/13 01:20:11;;;;;;;9.80;6.78;;;-2.40;99.90;;;;;;2065828;28;20201;-69
2021/04/13 01:21:34;;;;;;;12.82;7.45;;;-2.40;99.90;;;;;;2073004;28;20210;-68
2021/04/13 01:23:27;;;;;;;11.75;8.02;;;-2.40;99.90;;;;;;2073617;28;20181;-69
2021/04/13 01:24:22;;;;;;;10.43;6.85;;;-2.40;99.90;;;;;;2070253;28;20315;-69
2021/04/13 01:25:27;;;;;;;10.77;6.75;;;-2.40;99.90;;;;;;2081520;28;20272;-69
2021/04/13 01:26:34;;;;;;;10.80;7.43;;;-2.40;99.90;;;;;;2081304;28;20204;-69
2021/04/13 01:27:35;;;;;;;10.20;6.95;;;-2.40;99.90;;;;;;2073756;28;20681;-69
2021/04/13 01:28:38;;;;;;;12.25;8.70;;;-2.40;99.90;;;;;;2064909;28;20242;-69
2021/04/13 01:29:41;;;;;;;11.32;7.43;;;-2.40;99.90;;;;;;2073050;28;20537;-69
2021/04/13 01:30:48;;;;;;;11.20;7.65;;;-2.40;99.90;;;;;;2073162;28;20190;-69
2021/04/13 01:31:56;;;;;;;11.98;7.25;;;-2.50;99.90;;;;;;2065319;28;20187;-69
2021/04/13 01:33:17;;;;;;;11.27;7.95;;;-2.40;99.90;;;;;;2066977;28;20175;-69
2021/04/13 01:34:54;;;;;;;11.80;7.95;;;-2.40;99.90;;;;;;2075586;28;20573;-69
2021/04/13 01:35:58;;;;;;;10.00;6.68;;;-2.40;99.90;;;;;;2081327;28;20249;-69
2021/04/13 01:37:19;;;;;;;10.45;7.15;;;-2.50;99.90;;;;;;2080946;28;20181;-69
2021/04/13 01:38:27;;;;;;;10.75;7.35;;;-2.50;99.90;;;;;;2067644;28;20206;-69
2021/04/13 01:39:33;;;;;;;11.30;7.43;;;-2.50;99.90;;;;;;2067727;28;20185;-69
2021/04/13 01:40:44;;;;;;;11.45;7.65;;;-2.40;99.90;;;;;;2073986;28;20186;-69
2021/04/13 01:41:58;;;;;;;11.73;7.50;;;-2.50;99.90;;;;;;2074150;28;20582;-69
2021/04/13 01:43:00;;;;;;;11.43;7.90;;;-2.50;99.90;;;;;;2075350;28;20212;-72
2021/04/13 01:44:01;;;;;;;10.95;7.35;;;-2.50;99.90;;;;;;2080864;28;20703;-70
2021/04/13 01:45:16;;;;;;;11.20;7.80;;;-2.50;99.90;;;;;;2081027;28;20184;-69
2021/04/13 01:46:17;;;;;;;10.48;7.15;;;-2.50;99.90;;;;;;2074615;28;20987;-69
2021/04/13 01:47:21;;;;;;;9.77;7.13;;;-2.50;99.90;;;;;;2080939;28;20275;-70
2021/04/13 01:48:22;;;;;;;10.18;6.70;;;-2.50;99.90;;;;;;2080901;28;20174;-69
2021/04/13 01:49:23;;;;;;;9.63;6.83;;;-2.50;99.90;;;;;;2072879;28;20633;-69
2021/04/13 01:50:36;;;;;;;10.65;7.15;;;-2.60;99.90;;;;;;2080926;28;20676;-69
2021/04/13 01:51:37;;;;;;;11.10;7.28;;;-2.60;99.90;;;;;;2080764;28;20189;-69
2021/04/13 01:52:42;;;;;;;8.87;6.73;;;-2.60;99.90;;;;;;2080953;28;20667;-70
2021/04/13 01:53:47;;;;;;;9.35;6.95;;;-2.60;99.90;;;;;;2080899;28;20162;-69
2021/04/13 01:54:48;;;;;;;10.85;7.07;;;-2.60;99.90;;;;;;2073249;28;20725;-68
2021/04/13 01:55:59;;;;;;;8.40;6.68;;;-2.60;99.90;;;;;;2073001;28;20196;-69
2021/04/13 01:57:21;;;;;;;11.23;7.18;;;-2.60;99.90;;;;;;2073940;28;20181;-69
2021/04/13 01:58:43;;;;;;;9.35;6.60;;;-2.70;99.90;;;;;;2075681;28;20165;-70
2021/04/13 02:00:03;;;;;;;8.35;6.13;;;-2.60;99.90;;;;;;2081155;28;20196;-70
2021/04/13 02:01:31;;;;;;;11.63;7.10;;;-2.60;99.90;;;;;;2080723;28;20196;-69
2021/04/13 02:02:37;;;;;;;11.07;6.95;;;-2.70;99.90;;;;;;2076388;28;20169;-69
2021/04/13 02:03:52;;;;;;;11.27;7.78;;;-2.60;99.90;;;;;;2081735;28;20221;-70
2021/04/13 02:04:59;;;;;;;10.90;7.15;;;-2.70;99.90;;;;;;2072632;28;20297;-69
2021/04/13 02:06:16;;;;;;;11.13;6.75;;;-2.70;99.90;;;;;;2066347;28;20166;-69
2021/04/13 02:07:37;;;;;;;10.20;7.25;;;-2.70;99.90;;;;;;2066896;28;20700;-69
2021/04/13 02:08:54;;;;;;;10.00;7.28;;;-2.70;99.90;;;;;;2070023;28;20705;-70
2021/04/13 02:10:05;;;;;;;10.90;7.78;;;-2.70;99.90;;;;;;2075832;28;20573;-68
2021/04/13 02:11:12;;;;;;;12.20;7.65;;;-2.80;99.90;;;;;;2074364;28;20845;-70
2021/04/13 02:12:22;;;;;;;9.73;7.22;;;-2.70;99.90;;;;;;2073527;28;20275;-69
2021/04/13 02:13:32;;;;;;;11.48;7.20;;;-2.80;99.90;;;;;;2073877;28;20630;-70
2021/04/13 02:14:40;;;;;;;11.10;7.57;;;-2.80;99.90;;;;;;2080959;28;20194;-69
2021/04/13 02:16:17;;;;;;;12.38;7.70;;;-2.90;99.90;;;;;;2080819;28;20199;-69
2021/04/13 02:17:48;;;;;;;8.55;6.50;;;-2.90;99.90;;;;;;2084347;28;20164;-69
2021/04/13 02:18:52;;;;;;;11.10;7.07;;;-2.90;99.90;;;;;;2074341;28;20181;-69
2021/04/13 02:19:54;;;;;;;11.48;6.97;;;-2.90;99.90;;;;;;2072403;28;20635;-70
2021/04/13 02:20:56;;;;;;;12.43;7.15;;;-2.90;99.90;;;;;;2072640;28;20626;-69
2021/04/13 02:22:08;;;;;;;10.68;7.95;;;-2.90;99.90;;;;;;2064286;28;20234;-68
2021/04/13 02:23:09;;;;;;;10.77;7.25;;;-2.90;99.90;;;;;;2059455;28;20167;-71
2021/04/13 02:24:14;;;;;;;11.25;6.97;;;-2.90;99.90;;;;;;2064341;28;20210;-69
2021/04/13 02:25:22;;;;;;;9.50;6.60;;;-2.90;99.90;;;;;;2065018;28;20596;-69
2021/04/13 02:26:24;;;;;;;9.20;7.05;;;-2.90;99.90;;;;;;2065979;28;20520;-70
2021/04/13 02:27:29;;;;;;;10.13;7.47;;;-3.00;99.90;;;;;;2064547;28;20202;-70
2021/04/13 02:28:30;;;;;;;10.88;7.90;;;-3.00;99.90;;;;;;2065117;28;20577;-70
2021/04/13 02:29:41;;;;;;;10.10;7.10;;;-3.00;99.90;;;;;;2063510;28;20254;-70
2021/04/13 02:30:46;;;;;;;10.30;7.10;;;-2.90;99.90;;;;;;2072652;28;20529;-69
2021/04/13 02:31:56;;;;;;;11.55;7.13;;;-2.90;99.90;;;;;;2072372;28;20166;-69
2021/04/13 02:32:59;;;;;;;12.40;7.85;;;-2.90;99.90;;;;;;2065781;28;20182;-69
2021/04/13 02:34:00;;;;;;;10.55;6.85;;;-2.90;99.90;;;;;;2064537;28;20324;-70
2021/04/13 02:35:17;;;;;;;10.80;6.57;;;-2.90;99.90;;;;;;2064391;28;20235;-69
2021/04/13 02:36:29;;;;;;;10.63;7.05;;;-3.00;99.90;;;;;;2066700;28;20417;-70
2021/04/13 02:37:50;;;;;;;9.23;6.47;;;-3.00;99.90;;;;;;2065739;28;20171;-69
2021/04/13 02:38:53;;;;;;;8.75;6.05;;;-3.10;99.90;;;;;;2067078;28;20170;-69
2021/04/13 02:39:55;;;;;;;10.25;6.13;;;-3.10;99.90;;;;;;2064633;28;20198;-70
2021/04/13 02:41:19;;;;;;;9.68;5.78;;;-3.10;99.90;;;;;;2072393;28;20214;-70
2021/04/13 02:42:26;;;;;;;8.25;5.60;;;-3.20;99.90;;;;;;2067284;28;20248;-69
2021/04/13 02:43:43;;;;;;;9.68;6.35;;;-3.20;99.90;;;;;;2065222;28;20689;-70
2021/04/13 02:44:54;;;;;;;8.93;5.90;;;-3.20;99.90;;;;;;2066519;28;20220;-69
2021/04/13 02:46:01;;;;;;;8.00;6.10;;;-3.20;99.90;;;;;;2072505;28;20248;-70
2021/04/13 02:47:10;;;;;;;10.57;6.50;;;-3.30;99.90;;;;;;2072219;28;20185;-70
2021/04/13 02:48:31;;;;;;;8.45;6.13;;;-3.30;99.90;;;;;;2065365;28;20170;-70
2021/04/13 02:49:41;;;;;;;9.07;6.07;;;-3.30;99.90;;;;;;2066989;28;20171;-69
2021/04/13 02:50:46;;;;;;;9.30;6.28;;;-3.30;99.90;;;;;;2065434;28;20162;-69
2021/04/13 02:51:54;;;;;;;9.75;7.00;;;-3.30;99.90;;;;;;2064701;28;20195;-70
2021/04/13 02:52:56;;;;;;;8.13;6.00;;;-3.30;99.90;;;;;;2065178;28;20177;-69
2021/04/13 02:53:59;;;;;;;8.63;5.68;;;-3.20;99.90;;;;;;2064218;28;20198;-69
2021/04/13 02:55:04;;;;;;;8.85;6.00;;;-3.20;99.90;;;;;;2064390;28;20265;-69
2021/04/13 02:56:12;;;;;;;7.13;5.68;;;-3.20;99.90;;;;;;2072216;28;20637;-69
2021/04/13 02:57:38;;;;;;;9.60;6.30;;;-3.30;99.90;;;;;;2065160;28;20662;-69
2021/04/13 02:58:58;;;;;;;10.25;6.13;;;-3.30;99.90;;;;;;2067625;28;20167;-69
2021/04/13 03:00:09;;;;;;;8.82;5.70;;;-3.30;99.90;;;;;;2066691;28;20175;-70
2021/04/13 03:01:12;;;;;;;10.98;7.03;;;-3.30;99.90;;;;;;2072186;28;20212;-68
2021/04/13 03:02:38;;;;;;;11.43;7.20;;;-3.20;99.90;;;;;;2072921;28;20277;-68
2021/04/13 03:03:43;;;;;;;10.23;6.75;;;-3.20;99.90;;;;;;2059894;28;20197;-69
2021/04/13 03:04:49;;;;;;;9.82;7.30;;;-3.20;99.90;;;;;;2064678;28;20191;-69
2021/04/13 03:05:53;;;;;;;10.30;7.18;;;-3.20;99.90;;;;;;2064795;28;20833;-69
2021/04/13 03:06:57;;;;;;;11.07;7.85;;;-3.20;99.90;;;;;;2064458;28;20185;-69
2021/04/13 03:08:05;;;;;;;11.45;7.05;;;-3.20;99.90;;;;;;2072170;28;20178;-69
2021/04/13 03:09:08;;;;;;;10.35;6.72;;;-3.20;99.90;;;;;;2072174;28;20239;-69
2021/04/13 03:10:14;;;;;;;10.45;6.75;;;-3.20;99.90;;;;;;2064267;28;20666;-70
2021/04/13 03:11:22;;;;;;;12.18;6.85;;;-3.20;99.90;;;;;;2064571;28;20170;-69
2021/04/13 03:12:23;;;;;;;11.45;7.00;;;-3.10;99.90;;;;;;2065053;28;20747;-69
2021/04/13 03:13:34;;;;;;;9.20;6.60;;;-3.10;99.90;;;;;;2064423;28;20182;-68
2021/04/13 03:14:48;;;;;;;10.60;6.82;;;-3.10;99.90;;;;;;2065645;28;20250;-69
2021/04/13 03:15:57;;;;;;;8.65;6.13;;;-3.20;99.90;;;;;;2066098;28;20248;-70
2021/04/13 03:16:58;;;;;;;10.20;6.22;;;-3.20;99.90;;;;;;2065202;28;20241;-68
2021/04/13 03:18:04;;;;;;;12.85;7.20;;;-3.20;99.90;;;;;;2065254;28;20188;-69
2021/04/13 03:19:15;;;;;;;8.98;6.75;;;-3.20;99.90;;;;;;2072544;28;20173;-69
2021/04/13 03:20:23;;;;;;;10.40;7.22;;;-3.20;99.90;;;;;;2073753;28;20174;-70
2021/04/13 03:21:32;;;;;;;8.95;6.53;;;-3.30;99.90;;;;;;2072842;28;20616;-69
2021/04/13 03:22:35;;;;;;;8.98;6.82;;;-3.20;99.90;;;;;;2073188;28;20331;-69
2021/04/13 03:23:38;;;;;;;9.05;7.05;;;-3.20;99.90;;;;;;2072272;28;20828;-69
2021/04/13 03:24:44;;;;;;;13.15;8.07;;;-3.20;99.90;;;;;;2072423;28;20202;-70
2021/04/13 03:25:53;;;;;;;8.93;6.68;;;-3.20;99.90;;;;;;2072781;28;20269;-69
2021/04/13 03:27:00;;;;;;;10.20;7.30;;;-3.20;99.90;;;;;;2073118;28;20661;-69
2021/04/13 03:28:05;;;;;;;12.15;7.82;;;-3.20;99.90;;;;;;2072737;28;20273;-69
2021/04/13 03:29:18;;;;;;;9.57;6.93;;;-3.30;99.90;;;;;;2072737;28;20213;-70
2021/04/13 03:30:27;;;;;;;9.60;6.78;;;-3.30;99.90;;;;;;2073648;28;20310;-69
2021/04/13 03:31:32;;;;;;;12.15;7.65;;;-3.30;99.90;;;;;;2072976;28;20621;-69
2021/04/13 03:32:55;;;;;;;11.18;7.25;;;-3.30;99.90;;;;;;2072478;28;20260;-69
2021/04/13 03:33:55;;;;;;;9.85;7.13;;;-3.30;99.90;;;;;;2075298;28;20263;-68
2021/04/13 03:34:57;;;;;;;11.60;7.57;;;-3.30;99.90;;;;;;2080273;28;20441;-69
2021/04/13 03:36:22;;;;;;;10.48;7.00;;;-3.30;99.90;;;;;;2080263;28;20176;-69
2021/04/13 03:37:23;;;;;;;11.85;7.25;;;-3.30;99.90;;;;;;2075240;28;20267;-69
2021/04/13 03:38:27;;;;;;;10.38;7.80;;;-3.30;99.90;;;;;;2072091;28;20193;-70
2021/04/13 03:39:38;;;;;;;9.63;6.85;;;-3.30;99.90;;;;;;2072490;28;20674;-69
2021/04/13 03:40:49;;;;;;;10.07;6.82;;;-3.30;99.90;;;;;;2073381;28;20184;-69
2021/04/13 03:41:50;;;;;;;9.48;6.15;;;-3.30;99.90;;;;;;2081344;28;20624;-70
2021/04/13 03:43:01;;;;;;;9.38;6.35;;;-3.30;99.90;;;;;;2080091;28;20173;-69
2021/04/13 03:44:03;;;;;;;9.73;6.32;;;-3.30;99.90;;;;;;2073126;28;20260;-70
2021/04/13 03:45:08;;;;;;;7.68;5.80;;;-3.30;99.90;;;;;;2072090;28;20181;-69
2021/04/13 03:46:11;;;;;;;8.85;6.43;;;-3.20;99.90;;;;;;2072385;28;20188;-70
2021/04/13 03:47:17;;;;;;;9.07;6.18;;;-3.30;99.90;;;;;;2072106;28;20581;-69
2021/04/13 03:48:26;;;;;;;9.02;6.30;;;-3.30;99.90;;;;;;2072818;28;20205;-70
2021/04/13 03:49:39;;;;;;;9.45;5.60;;;-3.30;99.90;;;;;;2073052;28;20169;-69
2021/04/13 03:50:40;;;;;;;10.45;5.82;;;-3.30;99.90;;;;;;2080280;28;20204;-69
2021/04/13 03:51:50;;;;;;;6.93;5.97;;;-3.30;99.90;;;;;;2080489;28;20173;-69
2021/04/13 03:53:04;;;;;;;9.10;6.18;;;-3.20;99.90;;;;;;2080199;28;20193;-70
2021/04/13 03:54:30;;;;;;;8.55;5.95;;;-3.20;99.90;;;;;;2071842;28;20228;-70
2021/04/13 03:55:33;;;;;;;7.93;5.47;;;-3.20;99.90;;;;;;2075375;28;20169;-70
2021/04/13 03:56:40;;;;;;;8.77;5.45;;;-3.20;99.90;;;;;;2080268;28;20176;-69
2021/04/13 03:57:41;;;;;;;9.38;5.53;;;-3.10;99.90;;;;;;2080725;28;20169;-70
2021/04/13 03:59:00;;;;;;;9.47;6.27;;;-3.10;99.90;;;;;;2080723;28;20260;-68
2021/04/13 04:00:09;;;;;;;8.50;5.40;;;-3.10;99.90;;;;;;2080051;28;20175;-70
2021/04/13 04:01:16;;;;;;;7.90;5.60;;;-3.10;99.90;;;;;;2073460;28;20207;-69
2021/04/13 04:02:17;;;;;;;8.77;5.70;;;-3.10;99.90;;;;;;2072846;28;20192;-70
2021/04/13 04:03:18;;;;;;;7.83;5.70;;;-3.00;99.90;;;;;;2080261;28;20205;-70
2021/04/13 04:04:29;;;;;;;9.60;6.00;;;-3.00;99.90;;;;;;2079937;28;20253;-69
2021/04/13 04:05:48;;;;;;;9.27;5.63;;;-3.00;99.90;;;;;;2080355;28;20203;-69
2021/04/13 04:07:05;;;;;;;7.60;5.35;;;-2.90;99.90;;;;;;2080346;28;20178;-69
2021/04/13 04:08:40;;;;;;;7.13;5.18;;;-2.80;99.90;;;;;;2074219;28;20603;-69
2021/04/13 04:09:41;;;;;;;9.77;6.35;;;-2.80;99.90;;;;;;2079183;28;20170;-69
2021/04/13 04:10:44;;;;;;;8.57;6.20;;;-2.80;99.90;;;;;;2074068;28;20174;-69
2021/04/13 04:11:46;;;;;;;8.50;6.05;;;-2.70;99.90;;;;;;2081674;28;20527;-70
2021/04/13 04:13:02;;;;;;;9.07;6.70;;;-2.70;99.90;;;;;;2081784;28;20207;-71
2021/04/13 04:14:03;;;;;;;10.93;6.95;;;-2.70;99.90;;;;;;2081989;28;20205;-69
2021/04/13 04:15:06;;;;;;;12.47;7.43;;;-2.70;99.90;;;;;;2082281;28;20192;-69
2021/04/13 04:16:28;;;;;;;12.70;8.07;;;-2.60;99.90;;;;;;2082351;28;20178;-69
2021/04/13 04:17:34;;;;;;;13.07;8.35;;;-2.60;99.90;;;;;;2082271;28;20172;-70
2021/04/13 04:18:42;;;;;;;10.32;7.55;;;-2.50;99.90;;;;;;2082461;28;20268;-69
2021/04/13 04:19:58;;;;;;;8.65;6.93;;;-2.50;99.90;;;;;;2081856;28;20169;-69
2021/04/13 04:21:02;;;;;;;12.18;8.00;;;-2.50;99.90;;;;;;2081839;28;20655;-69
2021/04/13 04:22:10;;;;;;;12.30;7.82;;;-2.40;99.90;;;;;;2073050;28;20715;-69
2021/04/13 04:23:17;;;;;;;11.75;8.40;;;-2.40;99.90;;;;;;2075702;28;20191;-70
2021/04/13 04:24:23;;;;;;;11.40;7.93;;;-2.40;99.90;;;;;;2081374;28;20209;-70
2021/04/13 04:25:40;;;;;;;10.95;7.72;;;-2.30;99.90;;;;;;2082336;28;20667;-70
2021/04/13 04:26:55;;;;;;;9.52;7.10;;;-2.30;99.90;;;;;;2087845;28;20161;-69
2021/04/13 04:28:01;;;;;;;10.30;6.60;;;-2.30;99.90;;;;;;2081776;28;20277;-69
2021/04/13 04:29:18;;;;;;;11.05;6.88;;;-2.20;99.90;;;;;;2074382;28;20186;-69
2021/04/13 04:30:34;;;;;;;11.52;6.70;;;-2.20;99.90;;;;;;2083983;28;20647;-69
2021/04/13 04:31:37;;;;;;;10.10;6.88;;;-2.20;99.90;;;;;;2089707;28;20567;-69
2021/04/13 04:32:43;;;;;;;9.68;6.70;;;-2.20;99.90;;;;;;2089329;28;20204;-69
2021/04/13 04:33:44;;;;;;;8.00;5.95;;;-2.20;99.90;;;;;;2082062;28;20197;-69
2021/04/13 04:34:45;;;;;;;9.67;6.50;;;-2.20;99.90;;;;;;2081792;28;20681;-69
2021/04/13 04:35:45;;;;;;;9.57;6.50;;;-2.20;99.90;;;;;;2081600;28;20188;-70
2021/04/13 04:36:52;;;;;;;10.10;6.40;;;-2.10;99.90;;;;;;2082304;28;20233;-69
2021/04/13 04:38:26;;;;;;;16.77;8.07;;;-2.10;99.90;;;;;;2082404;28;20216;-70
2021/04/13 04:39:33;;;;;;;63.05;21.65;;;-2.00;99.90;;;;;;2081770;28;20177;-69
2021/04/13 04:40:40;;;;;;;135.80;39.85;;;-2.00;99.90;;;;;;2066236;28;20186;-69
2021/04/13 04:41:41;;;;;;;130.45;36.95;;;-2.00;99.90;;;;;;2075139;28;20196;-69
2021/04/13 04:43:00;;;;;;;81.65;28.30;;;-2.10;99.90;;;;;;2081577;28;20235;-69
2021/04/13 04:44:02;;;;;;;70.70;23.10;;;-2.10;99.90;;;;;;2081897;28;20243;-69
2021/04/13 04:45:17;;;;;;;70.85;24.67;;;-2.10;99.90;;;;;;2081607;28;20182;-69
2021/04/13 04:46:41;;;;;;;76.90;24.55;;;-2.10;99.90;;;;;;2081762;28;20223;-68
2021/04/13 04:47:45;;;;;;;80.03;26.27;;;-2.10;99.90;;;;;;2082199;28;20200;-70
2021/04/13 04:49:03;;;;;;;48.83;19.65;;;-2.10;99.90;;;;;;2081639;28;20299;-70
2021/04/13 04:50:09;;;;;;;28.38;11.50;;;-2.10;99.90;;;;;;2075899;28;20265;-69
2021/04/13 04:51:13;;;;;;;16.88;8.73;;;-2.10;99.90;;;;;;2074233;28;20174;-69
2021/04/13 04:52:14;;;;;;;15.40;7.40;;;-2.10;99.90;;;;;;2073697;28;20272;-69
2021/04/13 04:53:17;;;;;;;12.83;7.00;;;-2.00;99.90;;;;;;2082745;28;20177;-70
2021/04/13 04:54:18;;;;;;;10.85;6.97;;;-2.10;99.90;;;;;;2082997;28;20215;-69
2021/04/13 04:55:19;;;;;;;12.18;7.10;;;-2.00;99.90;;;;;;2074821;28;20186;-69
2021/04/13 04:56:19;;;;;;;9.83;6.53;;;-2.00;99.90;;;;;;2083123;28;20737;-70
2021/04/13 04:57:20;;;;;;;9.77;6.67;;;-2.00;99.90;;;;;;2083248;28;20173;-68
2021/04/13 04:58:22;;;;;;;13.20;7.87;;;-2.00;99.90;;;;;;2082812;28;20671;-69
2021/04/13 04:59:22;;;;;;;12.20;8.18;;;-2.00;99.90;;;;;;2083658;28;20189;-69
2021/04/13 05:00:24;;;;;;;11.57;7.57;;;-2.00;99.90;;;;;;2083916;28;20185;-69
2021/04/13 05:01:26;;;;;;;10.30;7.05;;;-2.00;99.90;;;;;;2083813;28;20247;-69
2021/04/13 05:02:27;;;;;;;12.15;7.78;;;-2.00;99.90;;;;;;2083337;28;20181;-69
2021/04/13 05:03:28;;;;;;;10.13;7.50;;;-2.00;99.90;;;;;;2083276;28;20169;-70
2021/04/13 05:04:29;;;;;;;11.25;7.47;;;-1.90;99.90;;;;;;2082937;28;20203;-69
2021/04/13 05:05:30;;;;;;;13.63;7.20;;;-1.90;99.90;;;;;;2075301;28;20641;-69
2021/04/13 05:06:31;;;;;;;13.43;7.30;;;-1.90;99.90;;;;;;2083174;28;20179;-70
2021/04/13 05:07:31;;;;;;;15.40;8.53;;;-1.90;99.90;;;;;;2083170;28;20656;-70
2021/04/13 05:08:32;;;;;;;33.47;14.87;;;-1.90;99.90;;;;;;2074934;28;20728;-70
2021/04/13 05:09:33;;;;;;;36.50;16.07;;;-1.90;99.90;;;;;;2083726;28;20186;-70
2021/04/13 05:10:34;;;;;;;70.23;25.47;;;-1.90;99.90;;;;;;2083126;28;20244;-70
2021/04/13 05:11:34;;;;;;;67.53;26.55;;;-1.90;99.90;;;;;;2074752;28;20178;-70
2021/04/13 05:12:35;;;;;;;59.20;23.47;;;-1.80;99.90;;;;;;2082946;28;20190;-70
2021/04/13 05:13:36;;;;;;;22.07;11.17;;;-1.80;99.90;;;;;;2082981;28;20188;-70
2021/04/13 05:14:36;;;;;;;16.63;9.63;;;-1.80;99.90;;;;;;2083070;28;20188;-69
2021/04/13 05:15:37;;;;;;;15.27;9.00;;;-1.80;99.90;;;;;;2083593;28;20173;-69
2021/04/13 05:16:38;;;;;;;10.67;7.13;;;-1.80;99.90;;;;;;2083679;28;20207;-70
2021/04/13 05:17:39;;;;;;;15.70;7.50;;;-1.90;99.90;;;;;;2082929;28;20231;-69
2021/04/13 05:18:39;;;;;;;9.60;6.70;;;-1.90;99.90;;;;;;2083116;28;20311;-70
2021/04/13 05:19:41;;;;;;;10.93;6.57;;;-1.80;99.90;;;;;;2083574;28;20181;-69
2021/04/13 05:20:43;;;;;;;10.93;6.50;;;-1.80;99.90;;;;;;2083580;28;20188;-70
2021/04/13 05:21:43;;;;;;;8.88;6.35;;;-1.80;99.90;;;;;;2083723;28;20652;-69
2021/04/13 05:22:44;;;;;;;9.40;7.23;;;-1.70;99.90;;;;;;2083072;28;20174;-70
2021/04/13 05:23:45;;;;;;;10.07;7.50;;;-1.80;99.90;;;;;;2083066;28;20205;-70
2021/04/13 05:24:46;;;;;;;7.40;6.57;;;-1.80;99.90;;;;;;2083547;28;20431;-69
2021/04/13 05:25:47;;;;;;;10.90;7.93;;;-1.80;99.90;;;;;;2082021;28;20213;-70
2021/04/13 05:26:48;;;;;;;14.23;8.68;;;-1.70;99.90;;;;;;2075719;28;20217;-70
2021/04/13 05:27:50;;;;;;;18.87;11.03;;;-1.70;99.90;;;;;;2075399;28;20189;-70
2021/04/13 05:28:51;;;;;;;19.83;10.90;;;-1.70;99.90;;;;;;2075090;28;20178;-71
2021/04/13 05:29:52;;;;;;;16.55;10.43;;;-1.80;99.90;;;;;;2074880;28;20249;-71
2021/04/13 05:30:53;;;;;;;13.97;9.57;;;-1.80;99.90;;;;;;2075434;28;20189;-69
2021/04/13 05:31:53;;;;;;;13.17;8.97;;;-1.70;99.90;;;;;;2075484;28;20615;-70
2021/04/13 05:32:55;;;;;;;10.17;6.80;;;-1.70;99.90;;;;;;2075754;28;20186;-70
2021/04/13 05:33:56;;;;;;;12.05;7.90;;;-1.60;99.90;;;;;;2075511;28;20783;-69
2021/04/13 05:34:57;;;;;;;11.83;8.57;;;-1.60;99.90;;;;;;2075657;28;20224;-70
2021/04/13 05:36:01;;;;;;;10.97;7.77;;;-1.60;99.90;;;;;;2075483;28;20660;-70
2021/04/13 05:37:02;;;;;;;11.60;8.43;;;-1.60;99.90;;;;;;2074986;28;20197;-70
2021/04/13 05:38:14;;;;;;;11.15;8.30;;;-1.60;99.90;;;;;;2074883;28;20801;-70
2021/04/13 05:39:15;;;;;;;12.88;8.38;;;-1.60;99.90;;;;;;2066804;28;20242;-70
2021/04/13 05:40:26;;;;;;;14.25;8.93;;;-1.60;99.90;;;;;;2059040;28;20273;-70
2021/04/13 05:41:27;;;;;;;13.13;8.98;;;-1.50;99.90;;;;;;2068053;28;20194;-69
2021/04/13 05:42:31;;;;;;;10.65;7.78;;;-1.50;99.90;;;;;;2074959;28;20193;-70
2021/04/13 05:43:33;;;;;;;9.65;7.63;;;-1.50;99.90;;;;;;2075051;28;20205;-69
2021/04/13 05:44:34;;;;;;;9.88;7.82;;;-1.50;99.90;;;;;;2066952;28;20202;-71
2021/04/13 05:45:39;;;;;;;11.35;7.55;;;-1.50;99.90;;;;;;2075093;28;20185;-70
2021/04/13 05:46:40;;;;;;;12.60;7.93;;;-1.40;99.90;;;;;;2074968;28;20686;-69
2021/04/13 05:47:41;;;;;;;11.13;7.83;;;-1.40;99.90;;;;;;2066682;28;20183;-70
2021/04/13 05:48:42;;;;;;;9.48;6.93;;;-1.40;99.90;;;;;;2075143;28;20207;-69
2021/04/13 05:49:43;;;;;;;9.67;7.60;;;-1.40;99.90;;;;;;2075604;28;20703;-70